createdAt,value
2022-11-25T00:02:15.310Z,91784.59
2022-11-25T00:04:47.678Z,91788.53
2022-11-25T00:07:20.065Z,91793.16
2022-11-25T00:09:52.498Z,91801.38
2022-11-25T00:12:24.865Z,91802.41
2022-11-25T00:14:57.202Z,91786.94
2022-11-25T00:17:30.234Z,91802.44
2022-11-25T00:20:05.318Z,91797.56
2022-11-25T00:22:37.750Z,91798.84
2022-11-25T00:25:10.092Z,91793.38
2022-11-25T00:27:42.424Z,91804.00
2022-11-25T00:30:15.105Z,91796.75
2022-11-25T00:32:48.155Z,91809.16
2022-11-25T00:35:20.698Z,91805.25
2022-11-25T00:37:53.047Z,91793.13
2022-11-25T00:40:26.157Z,91802.16
2022-11-25T00:43:16.712Z,91804.50
2022-11-25T00:45:49.143Z,91800.63
2022-11-25T00:48:22.234Z,91795.97
2022-11-25T00:50:54.547Z,91799.84
2022-11-25T00:53:26.912Z,91806.03
2022-11-25T00:56:13.509Z,91803.19
2022-11-25T00:58:45.934Z,91800.31
2022-11-25T01:01:18.444Z,91802.63
2022-11-25T01:03:52.640Z,91803.13
2022-11-25T01:06:25.187Z,91801.06
2022-11-25T01:08:59.668Z,91796.66
2022-11-25T01:11:32.010Z,91798.97
2022-11-25T01:14:04.598Z,91794.66
2022-11-25T01:16:37.097Z,91803.69
2022-11-25T01:19:11.889Z,91799.03
2022-11-25T01:21:44.849Z,91797.50
2022-11-25T01:24:17.898Z,91795.41
2022-11-25T01:26:50.336Z,91797.47
2022-11-25T01:29:23.505Z,91799.75
2022-11-25T01:31:59.193Z,91798.53
2022-11-25T01:34:34.032Z,91793.38
2022-11-25T01:37:06.579Z,91788.44
2022-11-25T01:39:39.130Z,91784.81
2022-11-25T01:42:11.470Z,91782.47
2022-11-25T01:44:43.822Z,91779.88
2022-11-25T01:47:22.752Z,91767.47
2022-11-25T01:50:02.157Z,91768.50
2022-11-25T01:52:38.034Z,91768.53
2022-11-25T01:55:15.261Z,91762.06
2022-11-25T01:57:54.194Z,91760.75
2022-11-25T02:00:26.605Z,91779.16
2022-11-25T02:02:59.391Z,91781.97
2022-11-25T02:05:41.926Z,91771.69
2022-11-25T02:08:15.746Z,91782.03
2022-11-25T02:10:48.461Z,91785.88
2022-11-25T02:13:24.051Z,91773.00
2022-11-25T02:15:56.686Z,91787.72
2022-11-25T02:18:30.367Z,91794.44
2022-11-25T02:21:03.561Z,91797.81
2022-11-25T02:23:42.118Z,91795.72
2022-11-25T02:26:15.991Z,91795.47
2022-11-25T02:28:48.507Z,91794.44
2022-11-25T02:31:22.293Z,91791.84
2022-11-25T02:33:54.718Z,91801.41
2022-11-25T02:36:27.162Z,91790.81
2022-11-25T02:39:01.968Z,91790.06
2022-11-25T02:41:42.896Z,91805.00
2022-11-25T02:44:15.295Z,91796.22
2022-11-25T02:46:47.942Z,91792.34
2022-11-25T02:49:20.282Z,91797.56
2022-11-25T02:51:52.613Z,91790.06
2022-11-25T02:54:25.050Z,91786.19
2022-11-25T02:56:58.098Z,91796.75
2022-11-25T02:59:30.539Z,91800.63
2022-11-25T03:02:03.992Z,91802.41
2022-11-25T03:04:37.527Z,91802.41
2022-11-25T03:07:10.357Z,91809.09
2022-11-25T03:09:43.302Z,91799.81
2022-11-25T03:12:21.324Z,91816.06
2022-11-25T03:14:58.545Z,91811.69
2022-11-25T03:17:30.928Z,91814.03
2022-11-25T03:20:03.712Z,91818.69
2022-11-25T03:22:37.302Z,91823.59
2022-11-25T03:25:11.878Z,91810.44
2022-11-25T03:27:45.074Z,91825.69
2022-11-25T03:30:19.653Z,91830.06
2022-11-25T03:32:53.737Z,91824.09
2022-11-25T03:35:26.299Z,91838.56
2022-11-25T03:37:58.918Z,91837.03
2022-11-25T03:40:31.304Z,91837.78
2022-11-25T03:43:05.111Z,91842.19
2022-11-25T03:45:37.753Z,91842.97
2022-11-25T03:48:12.766Z,91842.19
2022-11-25T03:50:47.924Z,91846.03
2022-11-25T03:53:20.261Z,91853.53
2022-11-25T03:55:52.958Z,91850.66
2022-11-25T03:58:28.604Z,91853.25
2022-11-25T04:01:02.108Z,91848.31
2022-11-25T04:03:35.185Z,91857.84
2022-11-25T04:06:10.419Z,91856.81
2022-11-25T04:08:44.238Z,91856.31
2022-11-25T04:11:16.938Z,91855.59
2022-11-25T04:13:53.144Z,91851.47
2022-11-25T04:16:26.617Z,91859.44
2022-11-25T04:19:00.291Z,91872.34
2022-11-25T04:21:33.113Z,91865.13
2022-11-25T04:24:07.214Z,91868.75
2022-11-25T04:26:39.821Z,91873.66
2022-11-25T04:29:12.871Z,91881.41
2022-11-25T04:31:45.424Z,91876.50
2022-11-25T04:34:17.769Z,91879.59
2022-11-25T04:36:52.280Z,91882.69
2022-11-25T04:39:24.961Z,91891.47
2022-11-25T04:42:15.269Z,91883.22
2022-11-25T04:45:07.341Z,91883.72
2022-11-25T04:47:41.647Z,91882.97
2022-11-25T04:50:16.509Z,91891.19
2022-11-25T04:52:58.622Z,91901.78
2022-11-25T04:55:31.360Z,91901.00
2022-11-25T04:58:06.526Z,91904.88
2022-11-25T05:00:41.099Z,91911.84
2022-11-25T05:03:15.604Z,91920.59
2022-11-25T05:05:48.058Z,91923.19
2022-11-25T05:08:20.454Z,91932.19
2022-11-25T05:10:53.014Z,91934.22
2022-11-25T05:13:25.937Z,91943.78
2022-11-25T05:15:59.731Z,91934.25
2022-11-25T05:18:32.368Z,91947.91
2022-11-25T05:21:06.814Z,91954.91
2022-11-25T05:23:43.299Z,91949.72
2022-11-25T05:26:15.813Z,91960.56
2022-11-25T05:28:52.154Z,91957.44
2022-11-25T05:31:25.242Z,91961.91
2022-11-25T05:34:00.584Z,91967.03
2022-11-25T05:36:33.023Z,91980.22
2022-11-25T05:39:05.805Z,91976.34
2022-11-25T05:42:01.672Z,91982.56
2022-11-25T05:44:34.120Z,91990.81
2022-11-25T05:47:08.582Z,91991.38
2022-11-25T05:49:41.021Z,91998.56
2022-11-25T05:52:13.466Z,92002.44
2022-11-25T05:54:57.298Z,92003.47
2022-11-25T05:57:31.377Z,92009.34
2022-11-25T06:00:13.649Z,92011.19
2022-11-25T06:02:52.180Z,92009.38
2022-11-25T06:05:25.493Z,92018.34
2022-11-25T06:07:58.021Z,92022.81
2022-11-25T06:10:31.437Z,92027.44
2022-11-25T06:13:03.846Z,92037.75
2022-11-25T06:15:40.829Z,92035.16
2022-11-25T06:18:16.452Z,92031.81
2022-11-25T06:20:56.254Z,92048.19
2022-11-25T06:23:28.409Z,92051.41
2022-11-25T06:26:05.262Z,92044.97
2022-11-25T06:28:37.709Z,92045.00
2022-11-25T06:31:12.194Z,92052.00
2022-11-25T06:33:53.715Z,92057.63
2022-11-25T06:36:26.162Z,92055.50
2022-11-25T06:38:58.558Z,92058.16
2022-11-25T06:41:30.959Z,92062.53
2022-11-25T06:44:03.471Z,92069.28
2022-11-25T06:46:35.924Z,92065.94
2022-11-25T06:49:09.042Z,92054.88
2022-11-25T06:51:41.451Z,92065.94
2022-11-25T06:54:13.767Z,92069.06
2022-11-25T06:56:50.869Z,92070.88
2022-11-25T06:59:23.410Z,92063.41
2022-11-25T07:01:55.979Z,92076.34
2022-11-25T07:04:29.275Z,92081.78
2022-11-25T07:07:01.572Z,92078.94
2022-11-25T07:09:34.116Z,92075.06
2022-11-25T07:12:07.611Z,92077.16
2022-11-25T07:14:40.027Z,92078.19
2022-11-25T07:17:12.613Z,92072.22
2022-11-25T07:19:45.576Z,92081.53
2022-11-25T07:22:17.957Z,92078.66
2022-11-25T07:24:50.341Z,92084.09
2022-11-25T07:27:22.720Z,92083.59
2022-11-25T07:30:29.258Z,92077.13
2022-11-25T07:32:47.431Z,92077.66
2022-11-25T07:35:20.467Z,92086.19
2022-11-25T07:37:52.849Z,92086.41
2022-11-25T07:40:25.193Z,92089.00
2022-11-25T07:42:57.552Z,92102.47
2022-11-25T07:45:29.904Z,92091.06
2022-11-25T07:48:12.772Z,92095.97
2022-11-25T07:50:46.264Z,92098.84
2022-11-25T07:53:18.654Z,92091.63
2022-11-25T07:55:51.096Z,92095.50
2022-11-25T07:58:23.499Z,92091.09
2022-11-25T08:00:55.824Z,92093.97
2022-11-25T08:03:28.169Z,92099.38
2022-11-25T08:06:01.624Z,92106.88
2022-11-25T08:08:34.283Z,92101.69
2022-11-25T08:11:07.170Z,92106.88
2022-11-25T08:13:39.899Z,92112.03
2022-11-25T08:16:14.129Z,92122.16
2022-11-25T08:18:46.880Z,92115.63
2022-11-25T08:21:20.826Z,92116.97
2022-11-25T08:23:53.673Z,92118.53
2022-11-25T08:26:29.564Z,92110.50
2022-11-25T08:29:03.345Z,92117.47
2022-11-25T08:31:37.857Z,92129.38
2022-11-25T08:34:17.356Z,92127.56
2022-11-25T08:36:51.718Z,92128.88
2022-11-25T08:42:16.414Z,92123.66
2022-11-25T08:44:52.870Z,92127.00
2022-11-25T08:47:25.644Z,92129.59
2022-11-25T08:49:58.463Z,92121.81
2022-11-25T08:52:31.532Z,92124.34
2022-11-25T08:55:04.680Z,92131.69
2022-11-25T08:57:37.392Z,92116.41
2022-11-25T09:00:11.087Z,92125.22
2022-11-25T09:02:43.762Z,92125.22
2022-11-25T09:05:17.066Z,92135.06
2022-11-25T09:07:50.223Z,92132.47
2022-11-25T09:10:22.713Z,92137.13
2022-11-25T09:12:55.096Z,92137.09
2022-11-25T09:15:27.447Z,92129.84
2022-11-25T09:18:00.681Z,92133.16
2022-11-25T09:20:33.727Z,92134.16
2022-11-25T09:23:08.357Z,92121.97
2022-11-25T09:25:40.745Z,92135.16
2022-11-25T09:28:13.182Z,92145.19
2022-11-25T09:30:45.581Z,92144.47
2022-11-25T09:33:18.942Z,92136.97
2022-11-25T09:35:51.359Z,92137.69
2022-11-25T09:38:24.369Z,92139.25
2022-11-25T09:41:01.280Z,92139.69
2022-11-25T09:44:04.094Z,92120.47
2022-11-25T09:46:53.974Z,92128.50
2022-11-25T09:49:40.608Z,92149.59
2022-11-25T09:52:19.150Z,92148.84
2022-11-25T09:55:02.313Z,92147.56
2022-11-25T09:57:51.964Z,92149.91
2022-11-25T10:00:36.623Z,92146.75
2022-11-25T10:03:16.919Z,92145.75
2022-11-25T10:05:58.670Z,92151.72
2022-11-25T10:08:35.617Z,92149.72
2022-11-25T10:11:21.163Z,92146.56
2022-11-25T10:14:00.395Z,92147.84
2022-11-25T10:16:38.795Z,92143.38
2022-11-25T10:19:20.848Z,92160.97
2022-11-25T10:21:53.266Z,92169.25
2022-11-25T10:24:25.860Z,92156.75
2022-11-25T10:27:05.317Z,92168.34
2022-11-25T10:29:38.252Z,92160.66
2022-11-25T10:32:21.894Z,92164.84
2022-11-25T10:34:59.081Z,92163.56
2022-11-25T10:37:37.744Z,92158.16
2022-11-25T10:40:15.199Z,92162.06
2022-11-25T10:42:48.326Z,92160.97
2022-11-25T10:45:28.501Z,92161.59
2022-11-25T10:48:18.123Z,92156.63
2022-11-25T10:51:05.278Z,92158.25
2022-11-25T10:53:38.166Z,92163.13
2022-11-25T10:56:16.856Z,92141.94
2022-11-25T10:58:50.028Z,92159.00
2022-11-25T11:01:24.939Z,92160.31
2022-11-25T11:04:05.544Z,92154.88
2022-11-25T11:06:39.970Z,92165.50
2022-11-25T11:09:32.419Z,92166.81
2022-11-25T11:12:15.590Z,92165.50
2022-11-25T11:14:49.276Z,92174.56
2022-11-25T11:17:34.727Z,92172.78
2022-11-25T11:20:21.859Z,92192.19
2022-11-25T11:23:07.070Z,92191.91
2022-11-25T11:25:43.186Z,92190.88
2022-11-25T11:28:27.362Z,92190.38
2022-11-25T11:31:02.952Z,92182.88
2022-11-25T11:33:41.097Z,92196.31
2022-11-25T11:36:30.360Z,92186.75
2022-11-25T11:39:20.929Z,92187.78
2022-11-25T11:42:01.079Z,92202.31
2022-11-25T11:44:39.957Z,92182.91
2022-11-25T11:47:24.618Z,92202.81
2022-11-25T11:50:08.732Z,92198.94
2022-11-25T11:52:54.655Z,92198.41
2022-11-25T11:56:18.966Z,92187.28
2022-11-25T11:59:01.493Z,92189.38
2022-11-25T12:01:48.357Z,92190.94
2022-11-25T12:04:27.739Z,92178.50
2022-11-25T12:07:05.824Z,92197.63
2022-11-25T12:09:47.643Z,92191.94
2022-11-25T12:12:26.816Z,92189.63
2022-11-25T12:15:05.913Z,92198.66
2022-11-25T12:17:43.790Z,92197.38
2022-11-25T12:20:22.808Z,92208.75
2022-11-25T12:23:01.088Z,92211.88
2022-11-25T12:25:36.907Z,92211.38
2022-11-25T12:28:15.419Z,92216.78
2022-11-25T12:31:10.896Z,92208.22
2022-11-25T12:33:54.349Z,92209.53
2022-11-25T12:36:32.786Z,92201.78
2022-11-25T12:39:18.358Z,92205.91
2022-11-25T12:41:53.937Z,92201.53
2022-11-25T12:44:31.810Z,92212.41
2022-11-25T12:47:10.770Z,92202.28
2022-11-25T12:49:45.219Z,92197.66
2022-11-25T12:52:33.997Z,92204.88
2022-11-25T12:55:13.215Z,92199.44
2022-11-25T12:58:21.637Z,92199.44
2022-11-25T13:01:21.284Z,92195.53
2022-11-25T13:04:14.744Z,92186.75
2022-11-25T13:07:20.376Z,92191.91
2022-11-25T13:10:25.617Z,92186.50
2022-11-25T13:13:16.269Z,92176.66
2022-11-25T13:15:53.121Z,92180.28
2022-11-25T13:18:30.624Z,92180.28
2022-11-25T13:21:07.584Z,92175.84
2022-11-25T13:23:48.966Z,92184.91
2022-11-25T13:26:51.106Z,92182.03
2022-11-25T13:30:02.496Z,92183.13
2022-11-25T13:32:41.457Z,92178.22
2022-11-25T13:35:46.689Z,92179.72
2022-11-25T13:38:56.730Z,92180.47
2022-11-25T13:41:49.512Z,92189.59
2022-11-25T13:44:27.400Z,92194.53
2022-11-25T13:47:15.191Z,92191.69
2022-11-25T13:49:52.261Z,92187.25
2022-11-25T13:52:37.804Z,92186.69
2022-11-25T13:55:24.786Z,92190.78
2022-11-25T13:58:14.955Z,92192.06
2022-11-25T14:01:01.646Z,92194.38
2022-11-25T14:03:49.677Z,92198.00
2022-11-25T14:06:50.631Z,92204.25
2022-11-25T14:09:37.696Z,92199.84
2022-11-25T14:12:23.837Z,92212.53
2022-11-25T14:15:29.307Z,92208.91
2022-11-25T14:19:00.423Z,92214.88
2022-11-25T14:21:48.206Z,92215.41
2022-11-25T14:24:29.633Z,92212.34
2022-11-25T14:27:03.152Z,92212.91
2022-11-25T14:29:41.609Z,92198.94
2022-11-25T14:32:18.261Z,92214.22
2022-11-25T14:34:56.710Z,92221.97
2022-11-25T14:37:36.648Z,92209.00
2022-11-25T14:40:15.418Z,92211.84
2022-11-25T14:42:52.346Z,92228.63
2022-11-25T14:45:28.497Z,92216.22
2022-11-25T14:48:13.780Z,92222.13
2022-11-25T14:50:56.231Z,92229.34
2022-11-25T14:53:30.053Z,92224.44
2022-11-25T14:56:04.375Z,92228.28
2022-11-25T14:58:40.990Z,92229.31
2022-11-25T15:01:19.468Z,92227.28
2022-11-25T15:04:02.064Z,92227.34
2022-11-25T15:06:36.639Z,92226.59
2022-11-25T15:09:19.970Z,92221.00
2022-11-25T15:11:56.304Z,92231.06
2022-11-25T15:14:31.636Z,92220.50
2022-11-25T15:17:07.566Z,92224.78
2022-11-25T15:19:40.910Z,92222.47
2022-11-25T15:22:25.003Z,92225.09
2022-11-25T15:25:08.481Z,92237.69
2022-11-25T15:27:44.614Z,92242.03
2022-11-25T15:30:22.419Z,92243.84
2022-11-25T15:32:56.350Z,92251.34
2022-11-25T15:35:29.586Z,92243.63
2022-11-25T15:38:17.141Z,92245.16
2022-11-25T15:40:55.327Z,92247.22
2022-11-25T15:43:30.306Z,92252.75
2022-11-25T15:46:05.363Z,92252.13
2022-11-25T15:48:41.228Z,92249.06
2022-11-25T15:51:24.225Z,92252.66
2022-11-25T15:54:01.600Z,92260.44
2022-11-25T15:56:38.424Z,92252.47
2022-11-25T15:59:55.515Z,92262.59
2022-11-25T16:02:39.562Z,92256.66
2022-11-25T16:05:17.475Z,92259.28
2022-11-25T16:08:15.522Z,92255.69
2022-11-25T16:10:53.633Z,92270.25
2022-11-25T16:13:32.591Z,92264.44
2022-11-25T16:16:13.112Z,92263.44
2022-11-25T16:19:05.399Z,92256.50
2022-11-25T16:21:58.515Z,92268.13
2022-11-25T16:24:38.996Z,92275.59
2022-11-25T16:27:17.824Z,92268.13
2022-11-25T16:29:53.278Z,92279.25
2022-11-25T16:32:28.231Z,92274.34
2022-11-25T16:35:11.712Z,92278.19
2022-11-25T16:37:48.842Z,92269.41
2022-11-25T16:40:22.654Z,92270.94
2022-11-25T16:42:55.442Z,92274.28
2022-11-25T16:45:28.494Z,92273.47
2022-11-25T16:48:00.972Z,92272.66
2022-11-25T16:50:33.297Z,92279.09
2022-11-25T16:53:05.632Z,92283.22
2022-11-25T16:55:41.369Z,92282.41
2022-11-25T16:58:18.553Z,92277.94
2022-11-25T17:00:53.746Z,92284.19
2022-11-25T17:03:26.092Z,92291.38
2022-11-25T17:05:59.269Z,92289.19
2022-11-25T17:08:31.801Z,92290.75
2022-11-25T17:11:05.278Z,92298.00
2022-11-25T17:13:41.507Z,92293.63
2022-11-25T17:16:17.734Z,92299.25
2022-11-25T17:18:52.461Z,92294.06
2022-11-25T17:21:27.272Z,92291.22
2022-11-25T17:24:02.013Z,92294.03
2022-11-25T17:26:37.189Z,92300.78
2022-11-25T17:29:14.260Z,92300.28
2022-11-25T17:31:47.006Z,92298.00
2022-11-25T17:34:19.396Z,92301.34
2022-11-25T17:36:51.779Z,92303.69
2022-11-25T17:39:24.272Z,92309.09
2022-11-25T17:41:57.370Z,92298.41
2022-11-25T17:44:29.931Z,92302.59
2022-11-25T17:47:02.266Z,92304.91
2022-11-25T17:49:34.590Z,92297.50
2022-11-25T17:52:07.574Z,92298.25
2022-11-25T17:54:40.327Z,92300.56
2022-11-25T17:57:18.920Z,92306.06
2022-11-25T17:59:51.282Z,92296.38
2022-11-25T18:02:23.878Z,92298.44
2022-11-25T18:04:56.266Z,92303.13
2022-11-25T18:07:28.666Z,92298.25
2022-11-25T18:10:01.091Z,92299.28
2022-11-25T18:12:35.853Z,92295.09
2022-11-25T18:15:15.456Z,92283.16
2022-11-25T18:17:48.997Z,92291.66
2022-11-25T18:20:23.817Z,92295.94
2022-11-25T18:22:56.262Z,92302.66
2022-11-25T18:25:31.012Z,92299.59
2022-11-25T18:28:04.929Z,92295.41
2022-11-25T18:30:38.152Z,92298.50
2022-11-25T18:33:12.902Z,92301.03
2022-11-25T18:35:46.109Z,92309.06
2022-11-25T18:38:18.509Z,92298.94
2022-11-25T18:40:53.751Z,92291.66
2022-11-25T18:43:27.583Z,92297.41
2022-11-25T18:46:00.426Z,92279.69
2022-11-25T18:48:33.163Z,92297.81
2022-11-25T18:51:05.661Z,92291.41
2022-11-25T18:53:37.987Z,92291.13
2022-11-25T18:56:17.501Z,92285.25
2022-11-25T18:58:51.412Z,92299.25
2022-11-25T19:01:23.934Z,92298.06
2022-11-25T19:03:57.056Z,92303.28
2022-11-25T19:06:29.568Z,92307.91
2022-11-25T19:09:03.251Z,92298.84
2022-11-25T19:11:38.919Z,92310.06
2022-11-25T19:14:15.429Z,92304.97
2022-11-25T19:16:47.948Z,92312.75
2022-11-25T19:19:20.311Z,92310.34
2022-11-25T19:21:52.685Z,92295.72
2022-11-25T19:24:25.099Z,92301.72
2022-11-25T19:26:57.540Z,92317.34
2022-11-25T19:29:38.752Z,92310.78
2022-11-25T19:32:18.979Z,92321.97
2022-11-25T19:34:54.820Z,92330.72
2022-11-25T19:37:29.512Z,92329.47
2022-11-25T19:40:04.031Z,92330.50
2022-11-25T19:42:36.404Z,92333.06
2022-11-25T19:45:12.468Z,92331.03
2022-11-25T19:47:46.771Z,92326.81
2022-11-25T19:50:22.216Z,92334.22
2022-11-25T19:52:54.805Z,92324.31
2022-11-25T19:55:29.236Z,92323.47
2022-11-25T19:58:01.602Z,92323.88
2022-11-25T20:00:34.719Z,92329.00
2022-11-25T20:03:16.130Z,92331.38
2022-11-25T20:05:49.436Z,92340.09
2022-11-25T20:08:24.155Z,92339.78
2022-11-25T20:10:57.203Z,92336.97
2022-11-25T20:13:29.579Z,92342.91
2022-11-25T20:16:03.402Z,92340.31
2022-11-25T20:18:37.172Z,92340.19
2022-11-25T20:21:17.605Z,92331.69
2022-11-25T20:23:50.746Z,92347.41
2022-11-25T20:26:29.405Z,92347.97
2022-11-25T20:29:01.922Z,92347.38
2022-11-25T20:31:35.040Z,92352.47
2022-11-25T20:34:07.459Z,92341.97
2022-11-25T20:36:41.950Z,92344.63
2022-11-25T20:39:17.732Z,92334.25
2022-11-25T20:41:52.230Z,92352.25
2022-11-25T20:44:24.654Z,92358.25
2022-11-25T20:46:57.692Z,92355.97
2022-11-25T20:49:30.227Z,92354.28
2022-11-25T20:52:02.697Z,92352.47
2022-11-25T20:54:36.193Z,92352.00
2022-11-25T20:57:10.396Z,92355.34
2022-11-25T20:59:43.915Z,92355.88
2022-11-25T21:02:17.252Z,92361.03
2022-11-25T21:04:49.656Z,92359.94
2022-11-25T21:07:22.046Z,92358.06
2022-11-25T21:09:54.524Z,92370.25
2022-11-25T21:12:26.920Z,92362.78
2022-11-25T21:14:59.240Z,92356.63
2022-11-25T21:17:32.282Z,92360.63
2022-11-25T21:20:05.606Z,92372.94
2022-11-25T21:22:41.384Z,92374.59
2022-11-25T21:25:17.125Z,92390.88
2022-11-25T21:27:50.381Z,92398.56
2022-11-25T21:30:24.800Z,92406.63
2022-11-25T21:32:59.891Z,92408.13
2022-11-25T21:35:34.466Z,92409.59
2022-11-25T21:38:11.517Z,92411.38
2022-11-25T21:40:46.245Z,92415.06
2022-11-25T21:43:21.773Z,92416.84
2022-11-25T21:45:59.927Z,92420.06
2022-11-25T21:48:33.852Z,92418.81
2022-11-25T21:51:06.254Z,92424.22
2022-11-25T21:53:38.719Z,92426.31
2022-11-25T21:56:17.701Z,92418.81
2022-11-25T21:58:50.215Z,92418.69
2022-11-25T22:01:23.649Z,92411.78
2022-11-25T22:03:56.798Z,92410.97
2022-11-25T22:06:30.128Z,92413.09
2022-11-25T22:09:02.531Z,92406.16
2022-11-25T22:11:38.219Z,92416.75
2022-11-25T22:14:14.648Z,92423.47
2022-11-25T22:16:47.181Z,92429.28
2022-11-25T22:19:23.414Z,92429.06
2022-11-25T22:21:55.975Z,92434.44
2022-11-25T22:24:29.229Z,92434.91
2022-11-25T22:27:02.770Z,92431.66
2022-11-25T22:29:36.310Z,92436.59
2022-11-25T22:32:12.915Z,92430.69
2022-11-25T22:34:46.049Z,92434.22
2022-11-25T22:37:20.468Z,92435.63
2022-11-25T22:39:52.859Z,92435.63
2022-11-25T22:42:28.131Z,92435.84
2022-11-25T22:45:03.299Z,92433.81
2022-11-25T22:47:40.536Z,92430.47
2022-11-25T22:50:18.903Z,92441.50
2022-11-25T22:52:52.235Z,92437.59
2022-11-25T22:55:26.303Z,92441.44
2022-11-25T22:58:00.150Z,92446.47
2022-11-25T23:00:36.567Z,92447.94
2022-11-25T23:03:17.850Z,92438.00
2022-11-25T23:05:52.403Z,92443.78
2022-11-25T23:08:27.123Z,92449.16
2022-11-25T23:10:59.928Z,92437.66
2022-11-25T23:13:32.416Z,92437.31
2022-11-25T23:16:05.562Z,92436.78
2022-11-25T23:18:40.208Z,92443.03
2022-11-25T23:21:17.248Z,92427.22
2022-11-25T23:23:50.673Z,92437.44
2022-11-25T23:26:23.266Z,92431.22
2022-11-25T23:28:55.739Z,92438.69
2022-11-25T23:31:28.183Z,92444.47
2022-11-25T23:34:00.808Z,92439.03
2022-11-25T23:36:41.746Z,92440.47
2022-11-25T23:39:18.821Z,92413.34
2022-11-25T23:41:51.251Z,92430.19
2022-11-25T23:44:26.179Z,92431.75
2022-11-25T23:47:00.893Z,92432.66
2022-11-25T23:49:36.163Z,92423.50
2022-11-25T23:52:14.342Z,92425.16
2022-11-25T23:54:49.431Z,92421.94
2022-11-25T23:57:24.658Z,92425.06
2022-11-25T23:59:57.099Z,92420.47
